San Antonio, Texas
Current Conditions -  °F | °C
As of 2:08 PM on Monday 24 Nov 2014 (Local Time) from KSKF Reporting Station
Haze Haze  
Wind Chill: 64°   Ceiling: Unl
Heat Index: 64°   Visibility: 4mi
Dew Point: 28°   Wind: 6mph
Humidity: 26%   Direction: NA
Pressure: 30.04"   Gusts: NA
Location:  29.42°N, 98.49°W
Report Text: KSKF 242008Z AUTO VRB05KT 4SM HZ CLR 18/M02 A3004 RMK AO2 VIS 2 1/2 RWY15 $
Loading
Personal Weather Stations






























Interactive Weather Map New forecast layout! Learn more

10-Day Weather Forecast

Advertisements
Track Severe Weather on mobile